sensor_id;sensor_type;location;lat;lon;timestamp;P1;durP1;ratioP1;P2;durP2;ratioP2
69057;SDS011;56128;37.534;-122.308;2023-02-19T00:00:01;5.10;;;1.88;;
69057;SDS011;56128;37.534;-122.308;2023-02-19T00:02:28;6.13;;;2.38;;
69057;SDS011;56128;37.534;-122.308;2023-02-19T00:04:55;4.65;;;2.30;;
69057;SDS011;56128;37.534;-122.308;2023-02-19T00:07:21;6.10;;;2.70;;
69057;SDS011;56128;37.534;-122.308;2023-02-19T00:09:47;4.30;;;2.38;;
69057;SDS011;56128;37.534;-122.308;2023-02-19T00:12:13;4.60;;;2.70;;
69057;SDS011;56128;37.534;-122.308;2023-02-19T00:14:39;4.55;;;2.58;;
69057;SDS011;56128;37.534;-122.308;2023-02-19T00:17:05;6.65;;;3.13;;
69057;SDS011;56128;37.534;-122.308;2023-02-19T00:19:32;5.13;;;2.58;;
69057;SDS011;56128;37.534;-122.308;2023-02-19T00:21:58;7.43;;;2.95;;
69057;SDS011;56128;37.534;-122.308;2023-02-19T00:24:24;5.50;;;3.00;;
69057;SDS011;56128;37.534;-122.308;2023-02-19T00:26:50;5.15;;;2.75;;
69057;SDS011;56128;37.534;-122.308;2023-02-19T00:29:18;5.40;;;2.63;;
69057;SDS011;56128;37.534;-122.308;2023-02-19T00:31:45;5.53;;;2.70;;
69057;SDS011;56128;37.534;-122.308;2023-02-19T00:34:12;5.10;;;2.40;;
69057;SDS011;56128;37.534;-122.308;2023-02-19T00:36:40;4.57;;;2.03;;
69057;SDS011;56128;37.534;-122.308;2023-02-19T00:39:07;4.72;;;2.33;;
69057;SDS011;56128;37.534;-122.308;2023-02-19T00:41:36;5.95;;;2.40;;
69057;SDS011;56128;37.534;-122.308;2023-02-19T00:44:06;4.68;;;2.33;;
69057;SDS011;56128;37.534;-122.308;2023-02-19T00:46:33;6.55;;;2.65;;
69057;SDS011;56128;37.534;-122.308;2023-02-19T00:49:01;7.40;;;2.40;;
69057;SDS011;56128;37.534;-122.308;2023-02-19T00:51:30;8.15;;;3.70;;
69057;SDS011;56128;37.534;-122.308;2023-02-19T00:53:58;6.50;;;2.63;;
69057;SDS011;56128;37.534;-122.308;2023-02-19T00:56:24;6.35;;;3.13;;
69057;SDS011;56128;37.534;-122.308;2023-02-19T00:58:51;7.07;;;2.83;;
69057;SDS011;56128;37.534;-122.308;2023-02-19T01:01:18;7.15;;;3.10;;
69057;SDS011;56128;37.534;-122.308;2023-02-19T01:03:45;7.22;;;3.30;;
69057;SDS011;56128;37.534;-122.308;2023-02-19T01:06:12;8.18;;;3.60;;
69057;SDS011;56128;37.534;-122.308;2023-02-19T01:08:40;8.75;;;3.60;;
69057;SDS011;56128;37.534;-122.308;2023-02-19T01:11:07;7.72;;;3.40;;
69057;SDS011;56128;37.534;-122.308;2023-02-19T01:13:37;9.07;;;3.20;;
69057;SDS011;56128;37.534;-122.308;2023-02-19T01:16:22;7.75;;;3.15;;
69057;SDS011;56128;37.534;-122.308;2023-02-19T01:18:49;14.10;;;3.33;;
69057;SDS011;56128;37.534;-122.308;2023-02-19T01:21:19;11.20;;;4.15;;
69057;SDS011;56128;37.534;-122.308;2023-02-19T01:23:52;9.57;;;3.20;;
69057;SDS011;56128;37.534;-122.308;2023-02-19T01:26:26;8.73;;;2.97;;
69057;SDS011;56128;37.534;-122.308;2023-02-19T01:28:54;10.77;;;2.97;;
69057;SDS011;56128;37.534;-122.308;2023-02-19T01:31:21;9.70;;;3.20;;
69057;SDS011;56128;37.534;-122.308;2023-02-19T01:33:50;9.38;;;3.08;;
69057;SDS011;56128;37.534;-122.308;2023-02-19T01:36:19;8.38;;;3.15;;
69057;SDS011;56128;37.534;-122.308;2023-02-19T01:38:45;10.85;;;2.90;;
69057;SDS011;56128;37.534;-122.308;2023-02-19T01:41:13;8.15;;;3.33;;
69057;SDS011;56128;37.534;-122.308;2023-02-19T01:46:25;10.02;;;2.97;;
69057;SDS011;56128;37.534;-122.308;2023-02-19T01:48:59;10.93;;;3.28;;
69057;SDS011;56128;37.534;-122.308;2023-02-19T01:51:32;8.65;;;3.10;;
69057;SDS011;56128;37.534;-122.308;2023-02-19T01:54:03;7.68;;;2.80;;
69057;SDS011;56128;37.534;-122.308;2023-02-19T01:56:32;8.15;;;3.00;;
69057;SDS011;56128;37.534;-122.308;2023-02-19T01:59:00;7.15;;;2.95;;
69057;SDS011;56128;37.534;-122.308;2023-02-19T02:01:27;7.30;;;2.88;;
69057;SDS011;56128;37.534;-122.308;2023-02-19T02:03:53;5.22;;;2.60;;
69057;SDS011;56128;37.534;-122.308;2023-02-19T02:06:23;6.75;;;2.75;;
69057;SDS011;56128;37.534;-122.308;2023-02-19T02:08:54;6.80;;;2.70;;
69057;SDS011;56128;37.534;-122.308;2023-02-19T02:11:48;7.70;;;2.70;;
69057;SDS011;56128;37.534;-122.308;2023-02-19T02:14:20;8.73;;;2.97;;
69057;SDS011;56128;37.534;-122.308;2023-02-19T02:17:03;10.30;;;3.40;;
69057;SDS011;56128;37.534;-122.308;2023-02-19T02:22:45;7.88;;;2.95;;
69057;SDS011;56128;37.534;-122.308;2023-02-19T02:31:32;6.47;;;2.30;;
69057;SDS011;56128;37.534;-122.308;2023-02-19T02:34:16;6.68;;;2.63;;
69057;SDS011;56128;37.534;-122.308;2023-02-19T02:36:48;5.90;;;2.95;;
69057;SDS011;56128;37.534;-122.308;2023-02-19T02:39:18;6.40;;;2.90;;
69057;SDS011;56128;37.534;-122.308;2023-02-19T02:41:54;9.52;;;2.70;;
69057;SDS011;56128;37.534;-122.308;2023-02-19T02:44:40;8.40;;;3.08;;
69057;SDS011;56128;37.534;-122.308;2023-02-19T02:47:27;5.63;;;2.35;;
69057;SDS011;56128;37.534;-122.308;2023-02-19T02:50:11;5.47;;;2.40;;
69057;SDS011;56128;37.534;-122.308;2023-02-19T02:52:44;8.15;;;2.53;;
69057;SDS011;56128;37.534;-122.308;2023-02-19T02:55:35;7.25;;;2.40;;
69057;SDS011;56128;37.534;-122.308;2023-02-19T02:58:06;7.13;;;2.30;;
69057;SDS011;56128;37.534;-122.308;2023-02-19T03:00:33;6.38;;;2.80;;
69057;SDS011;56128;37.534;-122.308;2023-02-19T03:03:21;6.65;;;2.72;;
69057;SDS011;56128;37.534;-122.308;2023-02-19T03:06:09;12.27;;;2.50;;
69057;SDS011;56128;37.534;-122.308;2023-02-19T03:08:41;7.43;;;2.70;;
69057;SDS011;56128;37.534;-122.308;2023-02-19T03:11:16;5.65;;;2.38;;
69057;SDS011;56128;37.534;-122.308;2023-02-19T03:14:03;8.40;;;2.40;;
69057;SDS011;56128;37.534;-122.308;2023-02-19T03:17:07;4.78;;;2.60;;
69057;SDS011;56128;37.534;-122.308;2023-02-19T03:20:02;9.73;;;2.55;;
69057;SDS011;56128;37.534;-122.308;2023-02-19T03:22:32;7.38;;;2.75;;
69057;SDS011;56128;37.534;-122.308;2023-02-19T03:25:04;11.18;;;3.65;;
69057;SDS011;56128;37.534;-122.308;2023-02-19T03:27:53;10.32;;;2.92;;
69057;SDS011;56128;37.534;-122.308;2023-02-19T03:30:24;9.18;;;2.70;;
69057;SDS011;56128;37.534;-122.308;2023-02-19T03:33:11;9.05;;;2.80;;
69057;SDS011;56128;37.534;-122.308;2023-02-19T03:35:41;9.93;;;2.80;;
69057;SDS011;56128;37.534;-122.308;2023-02-19T03:38:48;6.50;;;2.40;;
69057;SDS011;56128;37.534;-122.308;2023-02-19T03:42:05;6.82;;;2.50;;
69057;SDS011;56128;37.534;-122.308;2023-02-19T03:46:55;8.55;;;2.35;;
69057;SDS011;56128;37.534;-122.308;2023-02-19T03:52:15;8.45;;;3.13;;
69057;SDS011;56128;37.534;-122.308;2023-02-19T03:57:48;10.35;;;2.90;;
69057;SDS011;56128;37.534;-122.308;2023-02-19T04:00:36;8.75;;;2.55;;
69057;SDS011;56128;37.534;-122.308;2023-02-19T04:05:59;8.45;;;2.67;;
69057;SDS011;56128;37.534;-122.308;2023-02-19T04:08:28;8.45;;;2.80;;
69057;SDS011;56128;37.534;-122.308;2023-02-19T04:10:59;6.95;;;2.30;;
69057;SDS011;56128;37.534;-122.308;2023-02-19T04:13:28;10.88;;;2.67;;
69057;SDS011;56128;37.534;-122.308;2023-02-19T04:15:59;7.07;;;2.22;;
69057;SDS011;56128;37.534;-122.308;2023-02-19T04:18:31;9.80;;;2.45;;
69057;SDS011;56128;37.534;-122.308;2023-02-19T04:21:03;5.70;;;2.08;;
69057;SDS011;56128;37.534;-122.308;2023-02-19T04:23:34;7.35;;;2.00;;
69057;SDS011;56128;37.534;-122.308;2023-02-19T04:26:07;6.47;;;2.40;;
69057;SDS011;56128;37.534;-122.308;2023-02-19T04:28:34;7.82;;;2.63;;
69057;SDS011;56128;37.534;-122.308;2023-02-19T04:31:02;6.43;;;2.10;;
69057;SDS011;56128;37.534;-122.308;2023-02-19T04:33:28;6.72;;;1.92;;
69057;SDS011;56128;37.534;-122.308;2023-02-19T04:35:55;6.35;;;2.08;;
69057;SDS011;56128;37.534;-122.308;2023-02-19T04:38:21;6.22;;;1.88;;
69057;SDS011;56128;37.534;-122.308;2023-02-19T04:40:47;7.65;;;2.47;;
69057;SDS011;56128;37.534;-122.308;2023-02-19T04:43:16;7.18;;;1.90;;
69057;SDS011;56128;37.534;-122.308;2023-02-19T04:45:42;7.18;;;2.22;;
69057;SDS011;56128;37.534;-122.308;2023-02-19T04:48:09;7.07;;;2.17;;
69057;SDS011;56128;37.534;-122.308;2023-02-19T04:50:38;6.45;;;2.10;;
69057;SDS011;56128;37.534;-122.308;2023-02-19T04:53:05;6.35;;;2.00;;
69057;SDS011;56128;37.534;-122.308;2023-02-19T04:55:35;7.03;;;2.63;;
69057;SDS011;56128;37.534;-122.308;2023-02-19T04:58:02;7.00;;;2.47;;
69057;SDS011;56128;37.534;-122.308;2023-02-19T05:00:28;4.65;;;1.90;;
69057;SDS011;56128;37.534;-122.308;2023-02-19T05:02:55;4.15;;;1.70;;
69057;SDS011;56128;37.534;-122.308;2023-02-19T05:05:21;3.35;;;1.80;;
69057;SDS011;56128;37.534;-122.308;2023-02-19T05:07:47;5.80;;;1.90;;
69057;SDS011;56128;37.534;-122.308;2023-02-19T05:10:14;7.60;;;1.90;;
69057;SDS011;56128;37.534;-122.308;2023-02-19T05:12:40;3.33;;;1.58;;
69057;SDS011;56128;37.534;-122.308;2023-02-19T05:15:06;4.07;;;1.85;;
69057;SDS011;56128;37.534;-122.308;2023-02-19T05:17:33;9.88;;;2.28;;
69057;SDS011;56128;37.534;-122.308;2023-02-19T05:19:59;6.25;;;1.70;;
69057;SDS011;56128;37.534;-122.308;2023-02-19T05:22:27;3.63;;;1.48;;
69057;SDS011;56128;37.534;-122.308;2023-02-19T05:24:54;4.78;;;2.10;;
69057;SDS011;56128;37.534;-122.308;2023-02-19T05:27:20;5.70;;;1.80;;
69057;SDS011;56128;37.534;-122.308;2023-02-19T05:29:46;5.97;;;1.60;;
69057;SDS011;56128;37.534;-122.308;2023-02-19T05:32:12;4.53;;;1.90;;
69057;SDS011;56128;37.534;-122.308;2023-02-19T05:34:38;3.47;;;1.70;;
69057;SDS011;56128;37.534;-122.308;2023-02-19T05:37:05;6.88;;;2.20;;
69057;SDS011;56128;37.534;-122.308;2023-02-19T05:39:31;5.43;;;1.77;;
69057;SDS011;56128;37.534;-122.308;2023-02-19T05:41:57;7.22;;;1.70;;
69057;SDS011;56128;37.534;-122.308;2023-02-19T05:44:23;5.68;;;2.42;;
69057;SDS011;56128;37.534;-122.308;2023-02-19T05:46:50;5.00;;;1.77;;
69057;SDS011;56128;37.534;-122.308;2023-02-19T05:49:16;6.25;;;2.17;;
69057;SDS011;56128;37.534;-122.308;2023-02-19T05:51:42;4.60;;;1.90;;
69057;SDS011;56128;37.534;-122.308;2023-02-19T05:54:08;5.80;;;2.03;;
69057;SDS011;56128;37.534;-122.308;2023-02-19T05:56:38;4.78;;;1.83;;
69057;SDS011;56128;37.534;-122.308;2023-02-19T05:59:09;6.45;;;2.10;;
69057;SDS011;56128;37.534;-122.308;2023-02-19T06:01:39;4.07;;;1.77;;
69057;SDS011;56128;37.534;-122.308;2023-02-19T06:04:05;4.88;;;1.80;;
69057;SDS011;56128;37.534;-122.308;2023-02-19T06:06:31;4.00;;;1.63;;
69057;SDS011;56128;37.534;-122.308;2023-02-19T06:08:57;7.55;;;1.92;;
69057;SDS011;56128;37.534;-122.308;2023-02-19T06:11:24;3.90;;;2.17;;
69057;SDS011;56128;37.534;-122.308;2023-02-19T06:13:50;6.53;;;1.70;;
69057;SDS011;56128;37.534;-122.308;2023-02-19T06:16:16;4.75;;;1.65;;
69057;SDS011;56128;37.534;-122.308;2023-02-19T06:18:43;6.22;;;1.70;;
69057;SDS011;56128;37.534;-122.308;2023-02-19T06:21:10;8.05;;;2.50;;
69057;SDS011;56128;37.534;-122.308;2023-02-19T06:23:37;4.32;;;1.58;;
69057;SDS011;56128;37.534;-122.308;2023-02-19T06:26:05;4.72;;;1.70;;
69057;SDS011;56128;37.534;-122.308;2023-02-19T06:28:52;4.57;;;1.95;;
69057;SDS011;56128;37.534;-122.308;2023-02-19T06:31:19;5.43;;;1.90;;
69057;SDS011;56128;37.534;-122.308;2023-02-19T06:33:46;4.47;;;1.70;;
69057;SDS011;56128;37.534;-122.308;2023-02-19T06:36:16;6.35;;;2.03;;
69057;SDS011;56128;37.534;-122.308;2023-02-19T06:38:43;4.85;;;1.92;;
69057;SDS011;56128;37.534;-122.308;2023-02-19T06:41:10;6.63;;;1.90;;
69057;SDS011;56128;37.534;-122.308;2023-02-19T06:43:37;4.63;;;1.73;;
69057;SDS011;56128;37.534;-122.308;2023-02-19T06:46:03;4.43;;;1.85;;
69057;SDS011;56128;37.534;-122.308;2023-02-19T06:48:32;5.93;;;2.28;;
69057;SDS011;56128;37.534;-122.308;2023-02-19T06:50:59;9.30;;;2.10;;
69057;SDS011;56128;37.534;-122.308;2023-02-19T06:53:25;6.00;;;1.95;;
69057;SDS011;56128;37.534;-122.308;2023-02-19T06:55:59;4.43;;;2.03;;
69057;SDS011;56128;37.534;-122.308;2023-02-19T06:58:30;4.65;;;2.15;;
69057;SDS011;56128;37.534;-122.308;2023-02-19T07:00:57;3.53;;;1.73;;
69057;SDS011;56128;37.534;-122.308;2023-02-19T07:03:24;5.00;;;1.92;;
69057;SDS011;56128;37.534;-122.308;2023-02-19T07:05:50;4.20;;;1.95;;
69057;SDS011;56128;37.534;-122.308;2023-02-19T07:08:17;7.25;;;2.92;;
69057;SDS011;56128;37.534;-122.308;2023-02-19T07:10:44;5.43;;;2.10;;
69057;SDS011;56128;37.534;-122.308;2023-02-19T07:13:10;3.95;;;1.98;;
69057;SDS011;56128;37.534;-122.308;2023-02-19T07:15:36;10.35;;;2.30;;
69057;SDS011;56128;37.534;-122.308;2023-02-19T07:18:03;4.57;;;1.75;;
69057;SDS011;56128;37.534;-122.308;2023-02-19T07:20:31;4.53;;;1.63;;
69057;SDS011;56128;37.534;-122.308;2023-02-19T07:22:57;5.45;;;1.83;;
69057;SDS011;56128;37.534;-122.308;2023-02-19T07:25:23;7.85;;;1.95;;
69057;SDS011;56128;37.534;-122.308;2023-02-19T07:27:49;3.58;;;1.67;;
69057;SDS011;56128;37.534;-122.308;2023-02-19T07:30:16;5.80;;;1.58;;
69057;SDS011;56128;37.534;-122.308;2023-02-19T07:32:42;5.28;;;1.80;;
69057;SDS011;56128;37.534;-122.308;2023-02-19T07:35:10;5.93;;;1.90;;
69057;SDS011;56128;37.534;-122.308;2023-02-19T07:37:36;3.70;;;1.70;;
69057;SDS011;56128;37.534;-122.308;2023-02-19T07:40:02;6.93;;;2.05;;
69057;SDS011;56128;37.534;-122.308;2023-02-19T07:42:29;4.03;;;1.60;;
69057;SDS011;56128;37.534;-122.308;2023-02-19T07:44:55;4.93;;;1.60;;
69057;SDS011;56128;37.534;-122.308;2023-02-19T07:47:21;3.38;;;1.55;;
69057;SDS011;56128;37.534;-122.308;2023-02-19T07:49:47;4.20;;;1.85;;
69057;SDS011;56128;37.534;-122.308;2023-02-19T07:52:14;4.43;;;1.83;;
69057;SDS011;56128;37.534;-122.308;2023-02-19T07:54:40;5.20;;;1.55;;
69057;SDS011;56128;37.534;-122.308;2023-02-19T07:57:06;3.78;;;1.70;;
69057;SDS011;56128;37.534;-122.308;2023-02-19T07:59:33;5.25;;;1.80;;
69057;SDS011;56128;37.534;-122.308;2023-02-19T08:01:59;9.80;;;2.55;;
69057;SDS011;56128;37.534;-122.308;2023-02-19T08:04:45;2.22;;;1.30;;
69057;SDS011;56128;37.534;-122.308;2023-02-19T08:07:12;3.92;;;2.00;;
69057;SDS011;56128;37.534;-122.308;2023-02-19T08:09:38;5.15;;;2.10;;
69057;SDS011;56128;37.534;-122.308;2023-02-19T08:12:05;4.38;;;1.80;;
69057;SDS011;56128;37.534;-122.308;2023-02-19T08:14:49;4.78;;;2.05;;
69057;SDS011;56128;37.534;-122.308;2023-02-19T08:17:15;4.75;;;1.50;;
69057;SDS011;56128;37.534;-122.308;2023-02-19T08:19:42;3.22;;;1.80;;
69057;SDS011;56128;37.534;-122.308;2023-02-19T08:22:08;3.42;;;2.13;;
69057;SDS011;56128;37.534;-122.308;2023-02-19T08:24:34;4.60;;;1.92;;
69057;SDS011;56128;37.534;-122.308;2023-02-19T08:27:02;4.80;;;1.50;;
69057;SDS011;56128;37.534;-122.308;2023-02-19T08:29:28;4.00;;;1.90;;
69057;SDS011;56128;37.534;-122.308;2023-02-19T08:31:54;3.58;;;1.55;;
69057;SDS011;56128;37.534;-122.308;2023-02-19T08:34:20;4.72;;;1.88;;
69057;SDS011;56128;37.534;-122.308;2023-02-19T08:36:46;4.85;;;2.15;;
69057;SDS011;56128;37.534;-122.308;2023-02-19T08:39:13;4.15;;;1.75;;
69057;SDS011;56128;37.534;-122.308;2023-02-19T08:41:39;4.18;;;1.80;;
69057;SDS011;56128;37.534;-122.308;2023-02-19T08:44:05;4.68;;;2.40;;
69057;SDS011;56128;37.534;-122.308;2023-02-19T08:46:31;3.47;;;1.52;;
69057;SDS011;56128;37.534;-122.308;2023-02-19T08:48:57;5.32;;;1.88;;
69057;SDS011;56128;37.534;-122.308;2023-02-19T08:51:24;4.65;;;1.67;;
69057;SDS011;56128;37.534;-122.308;2023-02-19T08:53:50;5.45;;;1.70;;
69057;SDS011;56128;37.534;-122.308;2023-02-19T08:56:16;4.97;;;2.47;;
69057;SDS011;56128;37.534;-122.308;2023-02-19T08:58:43;5.55;;;2.28;;
69057;SDS011;56128;37.534;-122.308;2023-02-19T09:01:10;4.10;;;1.70;;
69057;SDS011;56128;37.534;-122.308;2023-02-19T09:03:38;3.72;;;1.60;;
69057;SDS011;56128;37.534;-122.308;2023-02-19T09:06:05;3.35;;;1.63;;
69057;SDS011;56128;37.534;-122.308;2023-02-19T09:08:31;5.28;;;1.70;;
69057;SDS011;56128;37.534;-122.308;2023-02-19T09:11:01;2.88;;;1.70;;
69057;SDS011;56128;37.534;-122.308;2023-02-19T09:13:29;4.65;;;1.60;;
69057;SDS011;56128;37.534;-122.308;2023-02-19T09:15:55;5.88;;;2.17;;
69057;SDS011;56128;37.534;-122.308;2023-02-19T09:18:22;3.55;;;1.70;;
69057;SDS011;56128;37.534;-122.308;2023-02-19T09:20:49;6.75;;;2.28;;
69057;SDS011;56128;37.534;-122.308;2023-02-19T09:23:16;3.55;;;1.83;;
69057;SDS011;56128;37.534;-122.308;2023-02-19T09:25:42;4.15;;;2.15;;
69057;SDS011;56128;37.534;-122.308;2023-02-19T09:28:08;4.78;;;2.05;;
69057;SDS011;56128;37.534;-122.308;2023-02-19T09:30:34;5.18;;;1.88;;
69057;SDS011;56128;37.534;-122.308;2023-02-19T09:33:00;5.60;;;2.30;;
69057;SDS011;56128;37.534;-122.308;2023-02-19T09:35:29;5.28;;;2.15;;
69057;SDS011;56128;37.534;-122.308;2023-02-19T09:37:57;4.32;;;1.80;;
69057;SDS011;56128;37.534;-122.308;2023-02-19T09:40:25;7.25;;;2.22;;
69057;SDS011;56128;37.534;-122.308;2023-02-19T09:42:51;4.93;;;2.00;;
69057;SDS011;56128;37.534;-122.308;2023-02-19T09:45:19;4.82;;;2.20;;
69057;SDS011;56128;37.534;-122.308;2023-02-19T09:47:52;5.97;;;2.33;;
69057;SDS011;56128;37.534;-122.308;2023-02-19T09:50:21;3.45;;;1.73;;
69057;SDS011;56128;37.534;-122.308;2023-02-19T09:52:59;4.28;;;1.92;;
69057;SDS011;56128;37.534;-122.308;2023-02-19T09:55:31;3.97;;;1.70;;
69057;SDS011;56128;37.534;-122.308;2023-02-19T09:58:48;3.63;;;1.90;;
69057;SDS011;56128;37.534;-122.308;2023-02-19T10:00:53;4.45;;;1.73;;
69057;SDS011;56128;37.534;-122.308;2023-02-19T10:03:25;3.42;;;1.85;;
69057;SDS011;56128;37.534;-122.308;2023-02-19T10:05:59;3.78;;;1.90;;
69057;SDS011;56128;37.534;-122.308;2023-02-19T10:08:31;3.55;;;2.05;;
69057;SDS011;56128;37.534;-122.308;2023-02-19T10:11:00;6.32;;;1.83;;
69057;SDS011;56128;37.534;-122.308;2023-02-19T10:13:29;5.13;;;1.67;;
69057;SDS011;56128;37.534;-122.308;2023-02-19T10:16:01;3.63;;;2.13;;
69057;SDS011;56128;37.534;-122.308;2023-02-19T10:18:48;3.20;;;1.80;;
69057;SDS011;56128;37.534;-122.308;2023-02-19T10:21:18;6.10;;;2.03;;
69057;SDS011;56128;37.534;-122.308;2023-02-19T10:23:51;4.97;;;1.90;;
69057;SDS011;56128;37.534;-122.308;2023-02-19T10:26:20;3.67;;;2.08;;
69057;SDS011;56128;37.534;-122.308;2023-02-19T10:28:47;4.20;;;1.90;;
69057;SDS011;56128;37.534;-122.308;2023-02-19T10:31:18;4.47;;;1.95;;
69057;SDS011;56128;37.534;-122.308;2023-02-19T10:33:47;4.13;;;1.80;;
69057;SDS011;56128;37.534;-122.308;2023-02-19T10:36:20;3.30;;;1.73;;
69057;SDS011;56128;37.534;-122.308;2023-02-19T10:38:53;6.03;;;1.85;;
69057;SDS011;56128;37.534;-122.308;2023-02-19T10:41:21;5.45;;;1.80;;
69057;SDS011;56128;37.534;-122.308;2023-02-19T10:43:51;3.53;;;1.95;;
69057;SDS011;56128;37.534;-122.308;2023-02-19T10:49:32;3.85;;;1.80;;
69057;SDS011;56128;37.534;-122.308;2023-02-19T10:51:41;3.92;;;1.77;;
69057;SDS011;56128;37.534;-122.308;2023-02-19T10:59:49;4.18;;;1.73;;
69057;SDS011;56128;37.534;-122.308;2023-02-19T11:02:19;5.13;;;2.10;;
69057;SDS011;56128;37.534;-122.308;2023-02-19T11:05:03;3.75;;;1.70;;
69057;SDS011;56128;37.534;-122.308;2023-02-19T11:07:46;3.63;;;2.00;;
69057;SDS011;56128;37.534;-122.308;2023-02-19T11:10:24;3.92;;;2.05;;
69057;SDS011;56128;37.534;-122.308;2023-02-19T11:12:52;5.05;;;2.00;;
69057;SDS011;56128;37.534;-122.308;2023-02-19T11:15:31;4.82;;;2.15;;
69057;SDS011;56128;37.534;-122.308;2023-02-19T11:20:29;3.30;;;1.73;;
69057;SDS011;56128;37.534;-122.308;2023-02-19T11:23:00;4.63;;;2.15;;
69057;SDS011;56128;37.534;-122.308;2023-02-19T11:25:43;4.13;;;1.90;;
69057;SDS011;56128;37.534;-122.308;2023-02-19T11:28:29;5.40;;;2.33;;
69057;SDS011;56128;37.534;-122.308;2023-02-19T11:31:11;3.58;;;1.90;;
69057;SDS011;56128;37.534;-122.308;2023-02-19T11:34:12;5.03;;;1.80;;
69057;SDS011;56128;37.534;-122.308;2023-02-19T11:37:12;2.80;;;1.58;;
69057;SDS011;56128;37.534;-122.308;2023-02-19T11:39:44;4.93;;;2.25;;
69057;SDS011;56128;37.534;-122.308;2023-02-19T11:42:23;3.50;;;1.70;;
69057;SDS011;56128;37.534;-122.308;2023-02-19T11:50:51;3.95;;;1.70;;
69057;SDS011;56128;37.534;-122.308;2023-02-19T11:53:30;4.00;;;2.00;;
69057;SDS011;56128;37.534;-122.308;2023-02-19T12:01:41;5.35;;;1.77;;
69057;SDS011;56128;37.534;-122.308;2023-02-19T12:07:43;4.47;;;1.98;;
69057;SDS011;56128;37.534;-122.308;2023-02-19T12:10:20;4.35;;;2.00;;
69057;SDS011;56128;37.534;-122.308;2023-02-19T12:16:04;2.97;;;1.90;;
69057;SDS011;56128;37.534;-122.308;2023-02-19T12:27:18;5.25;;;2.08;;
69057;SDS011;56128;37.534;-122.308;2023-02-19T12:44:21;3.75;;;1.98;;
69057;SDS011;56128;37.534;-122.308;2023-02-19T12:46:59;7.35;;;2.13;;
69057;SDS011;56128;37.534;-122.308;2023-02-19T12:49:41;3.92;;;2.00;;
69057;SDS011;56128;37.534;-122.308;2023-02-19T12:52:21;5.20;;;2.00;;
69057;SDS011;56128;37.534;-122.308;2023-02-19T12:54:53;4.13;;;2.15;;
69057;SDS011;56128;37.534;-122.308;2023-02-19T12:57:31;9.48;;;1.98;;
69057;SDS011;56128;37.534;-122.308;2023-02-19T13:02:48;4.25;;;2.20;;
69057;SDS011;56128;37.534;-122.308;2023-02-19T13:05:22;4.03;;;2.17;;
69057;SDS011;56128;37.534;-122.308;2023-02-19T13:08:18;3.60;;;2.00;;
69057;SDS011;56128;37.534;-122.308;2023-02-19T13:13:25;4.80;;;1.70;;
69057;SDS011;56128;37.534;-122.308;2023-02-19T13:16:13;5.68;;;1.83;;
69057;SDS011;56128;37.534;-122.308;2023-02-19T13:21:35;4.90;;;2.25;;
69057;SDS011;56128;37.534;-122.308;2023-02-19T13:38:16;4.28;;;2.40;;
69057;SDS011;56128;37.534;-122.308;2023-02-19T13:40:52;3.90;;;1.80;;
69057;SDS011;56128;37.534;-122.308;2023-02-19T13:46:03;4.38;;;2.00;;
69057;SDS011;56128;37.534;-122.308;2023-02-19T13:48:36;3.72;;;2.22;;
69057;SDS011;56128;37.534;-122.308;2023-02-19T13:59:20;3.50;;;1.92;;
69057;SDS011;56128;37.534;-122.308;2023-02-19T14:14:49;4.43;;;2.20;;
69057;SDS011;56128;37.534;-122.308;2023-02-19T14:20:00;4.40;;;1.90;;
69057;SDS011;56128;37.534;-122.308;2023-02-19T14:25:35;3.30;;;2.00;;
69057;SDS011;56128;37.534;-122.308;2023-02-19T14:33:36;3.95;;;1.77;;
69057;SDS011;56128;37.534;-122.308;2023-02-19T14:41:47;4.50;;;2.08;;
69057;SDS011;56128;37.534;-122.308;2023-02-19T14:44:22;4.53;;;2.22;;
69057;SDS011;56128;37.534;-122.308;2023-02-19T14:52:06;4.43;;;2.00;;
69057;SDS011;56128;37.534;-122.308;2023-02-19T14:54:44;4.13;;;2.00;;
69057;SDS011;56128;37.534;-122.308;2023-02-19T14:57:22;5.05;;;2.58;;
69057;SDS011;56128;37.534;-122.308;2023-02-19T14:59:54;4.13;;;2.25;;
69057;SDS011;56128;37.534;-122.308;2023-02-19T15:02:26;4.60;;;2.03;;
69057;SDS011;56128;37.534;-122.308;2023-02-19T15:04:54;6.53;;;2.50;;
69057;SDS011;56128;37.534;-122.308;2023-02-19T15:07:28;5.93;;;2.60;;
69057;SDS011;56128;37.534;-122.308;2023-02-19T15:09:58;5.88;;;2.17;;
69057;SDS011;56128;37.534;-122.308;2023-02-19T15:12:32;4.57;;;2.15;;
69057;SDS011;56128;37.534;-122.308;2023-02-19T15:15:14;4.60;;;2.08;;
69057;SDS011;56128;37.534;-122.308;2023-02-19T15:17:53;5.82;;;2.40;;
69057;SDS011;56128;37.534;-122.308;2023-02-19T15:20:23;4.60;;;2.30;;
69057;SDS011;56128;37.534;-122.308;2023-02-19T15:22:52;4.72;;;2.17;;
69057;SDS011;56128;37.534;-122.308;2023-02-19T15:25:20;5.97;;;2.55;;
69057;SDS011;56128;37.534;-122.308;2023-02-19T15:27:49;5.15;;;2.85;;
69057;SDS011;56128;37.534;-122.308;2023-02-19T15:30:24;5.50;;;2.47;;
69057;SDS011;56128;37.534;-122.308;2023-02-19T15:32:58;6.00;;;2.70;;
69057;SDS011;56128;37.534;-122.308;2023-02-19T15:35:25;6.97;;;2.60;;
69057;SDS011;56128;37.534;-122.308;2023-02-19T15:37:53;8.10;;;2.75;;
69057;SDS011;56128;37.534;-122.308;2023-02-19T15:40:21;4.72;;;2.53;;
69057;SDS011;56128;37.534;-122.308;2023-02-19T15:42:51;4.90;;;2.65;;
69057;SDS011;56128;37.534;-122.308;2023-02-19T15:48:14;4.75;;;2.55;;
69057;SDS011;56128;37.534;-122.308;2023-02-19T15:50:50;7.60;;;2.60;;
69057;SDS011;56128;37.534;-122.308;2023-02-19T15:53:25;4.82;;;2.80;;
69057;SDS011;56128;37.534;-122.308;2023-02-19T15:56:18;5.90;;;2.92;;
69057;SDS011;56128;37.534;-122.308;2023-02-19T16:01:28;3.22;;;2.25;;
69057;SDS011;56128;37.534;-122.308;2023-02-19T16:04:00;7.00;;;2.63;;
69057;SDS011;56128;37.534;-122.308;2023-02-19T16:06:27;5.57;;;2.78;;
69057;SDS011;56128;37.534;-122.308;2023-02-19T16:11:27;5.57;;;3.67;;
69057;SDS011;56128;37.534;-122.308;2023-02-19T16:16:43;4.57;;;2.67;;
69057;SDS011;56128;37.534;-122.308;2023-02-19T16:19:17;7.70;;;3.60;;
69057;SDS011;56128;37.534;-122.308;2023-02-19T16:21:55;5.18;;;3.17;;
69057;SDS011;56128;37.534;-122.308;2023-02-19T16:24:29;6.03;;;3.60;;
69057;SDS011;56128;37.534;-122.308;2023-02-19T16:26:58;5.85;;;2.92;;
69057;SDS011;56128;37.534;-122.308;2023-02-19T16:29:26;3.80;;;2.55;;
69057;SDS011;56128;37.534;-122.308;2023-02-19T16:31:55;5.32;;;2.38;;
69057;SDS011;56128;37.534;-122.308;2023-02-19T16:34:40;4.45;;;2.03;;
69057;SDS011;56128;37.534;-122.308;2023-02-19T16:45:16;6.78;;;3.03;;
69057;SDS011;56128;37.534;-122.308;2023-02-19T16:47:42;7.15;;;3.78;;
69057;SDS011;56128;37.534;-122.308;2023-02-19T16:50:24;8.25;;;4.90;;
69057;SDS011;56128;37.534;-122.308;2023-02-19T16:52:58;9.63;;;4.80;;
69057;SDS011;56128;37.534;-122.308;2023-02-19T16:55:26;9.75;;;5.57;;
69057;SDS011;56128;37.534;-122.308;2023-02-19T16:57:54;11.00;;;5.47;;
69057;SDS011;56128;37.534;-122.308;2023-02-19T17:00:24;9.38;;;5.25;;
69057;SDS011;56128;37.534;-122.308;2023-02-19T17:02:56;9.98;;;5.13;;
69057;SDS011;56128;37.534;-122.308;2023-02-19T17:05:25;8.75;;;5.00;;
69057;SDS011;56128;37.534;-122.308;2023-02-19T17:07:53;10.23;;;5.22;;
69057;SDS011;56128;37.534;-122.308;2023-02-19T17:10:23;11.00;;;6.13;;
69057;SDS011;56128;37.534;-122.308;2023-02-19T17:12:51;12.60;;;6.40;;